Time;durP1;ratioP1;P1;durP2;ratioP2;P2;SDS_P1;SDS_P2;PMS_P1;PMS_P2;Temp;Humidity;BMP_temperature;BMP_pressure;BME280_temperature;BME280_humidity;BME280_pressure;Samples;Min_cycle;Max_cycle;Signal;HPM_P1;HPM_P2
2023/01/11 00:01:03;;;;;;;;;1.00;1.00;;;;;11.75;87.53;100647.47;5030333;28;45782;-62
2023/01/11 00:03:29;;;;;;;;;3.00;2.00;;;;;11.77;87.00;100625.28;5056236;28;45376;-62
2023/01/11 00:05:56;;;;;;;;;0.25;0.00;;;;;11.45;87.44;100579.41;5041254;28;45647;-63
2023/01/11 00:08:23;;;;;;;;;1.00;1.00;;;;;11.75;87.61;100608.16;5039030;28;46731;-62
2023/01/11 00:10:49;;;;;;;;;0.20;0.20;;;;;11.80;87.58;100631.16;5039203;28;45396;-61
2023/01/11 00:13:14;;;;;;;;;1.20;1.20;;;;;11.82;87.66;100638.34;5040626;28;45500;-62
2023/01/11 00:15:40;;;;;;;;;1.00;1.00;;;;;11.81;87.81;100621.03;5023171;28;45347;-61
2023/01/11 00:18:06;;;;;;;;;2.00;2.00;;;;;11.80;88.12;100628.41;5040125;28;46457;-61
2023/01/11 00:20:31;;;;;;;;;3.75;1.00;;;;;11.80;88.24;100633.91;5040799;28;45443;-62
2023/01/11 00:22:57;;;;;;;;;1.00;1.00;;;;;11.58;88.48;100600.44;5022933;28;45331;-62
2023/01/11 00:25:22;;;;;;;;;0.75;0.75;;;;;11.80;87.95;100625.66;5040415;28;45501;-62
2023/01/11 00:27:48;;;;;;;;;1.50;1.50;;;;;11.74;88.26;100617.47;5030523;28;45355;-62
2023/01/11 00:30:15;;;;;;;;;1.00;1.00;;;;;11.78;88.33;100607.69;5076031;28;45255;-60
2023/01/11 00:32:40;;;;;;;;;1.20;1.20;;;;;11.60;87.95;100581.84;5061090;28;45504;-60
2023/01/11 00:35:06;;;;;;;;;3.00;2.00;;;;;11.82;88.80;100602.59;5042978;28;45445;-62
2023/01/11 00:37:32;;;;;;;;;1.00;1.00;;;;;11.66;88.18;100582.84;5042113;28;46553;-62
2023/01/11 00:39:57;;;;;;;;;2.75;1.00;;;;;11.78;88.16;100603.06;5060749;28;45417;-62
2023/01/11 00:48:01;;;;;;;;;0.60;0.00;;;;;11.83;88.18;100601.53;5060543;28;45435;-62
2023/01/11 00:50:31;;;;;;;;;1.80;1.80;;;;;11.68;88.39;100583.47;5044148;28;45374;-62
2023/01/11 00:52:57;;;;;;;;;0.60;0.60;;;;;11.82;88.86;100591.59;5060678;28;45420;-62
2023/01/11 00:55:22;;;;;;;;;0.75;0.75;;;;;11.70;88.70;100575.84;5060689;28;45352;-63
2023/01/11 00:57:48;;;;;;;;;1.00;1.00;;;;;11.77;89.05;100593.13;5060319;28;45291;-62
2023/01/11 01:00:14;;;;;;;;;2.00;1.00;;;;;11.82;89.41;100580.59;5076192;28;45303;-62
2023/01/11 01:02:39;;;;;;;;;0.00;0.00;;;;;11.77;89.30;100582.13;5076081;28;45392;-62
2023/01/11 01:05:05;;;;;;;;;0.00;0.00;;;;;11.80;89.15;100591.84;5060820;28;45500;-63
2023/01/11 01:07:31;;;;;;;;;1.80;1.80;;;;;11.79;89.17;100579.13;5075541;28;46616;-63
2023/01/11 01:09:56;;;;;;;;;1.00;0.00;;;;;11.73;89.51;100575.38;5075772;28;45528;-62
2023/01/11 01:15:10;;;;;;;;;0.00;0.00;;;;;11.79;89.55;100577.25;5037503;28;45432;-63
2023/01/11 01:17:36;;;;;;;;;0.00;0.00;;;;;11.65;89.50;100560.00;5057013;28;46520;-63
2023/01/11 01:20:01;;;;;;;;;0.00;0.00;;;;;11.79;89.84;100577.25;5072457;28;45440;-63
2023/01/11 01:22:27;;;;;;;;;0.00;0.00;;;;;11.79;89.94;100584.63;5056908;28;45329;-61
2023/01/11 01:24:52;;;;;;;;;1.00;1.00;;;;;11.77;90.01;100581.28;5057051;28;45302;-63
2023/01/11 01:27:18;;;;;;;;;0.00;0.00;;;;;11.80;90.01;100581.66;5021945;28;45369;-63
2023/01/11 01:29:44;;;;;;;;;1.00;0.00;;;;;11.80;89.86;100565.16;5038216;28;45675;-63
2023/01/11 01:32:10;;;;;;;;;1.00;0.00;;;;;11.81;89.75;100557.78;5057090;28;45686;-63
2023/01/11 01:34:36;;;;;;;;;0.00;0.00;;;;;11.79;90.08;100560.75;5022341;28;45648;-62
2023/01/11 01:37:09;;;;;;;;;1.00;0.00;;;;;11.78;89.83;100558.22;5056663;28;45973;-62
2023/01/11 01:39:34;;;;;;;;;0.00;0.00;;;;;11.77;90.21;100557.38;5022098;28;45503;-62
2023/01/11 01:42:00;;;;;;;;;0.00;0.00;;;;;11.77;90.72;100543.63;5056753;28;45331;-63
2023/01/11 01:45:02;;;;;;;;;0.00;0.00;;;;;11.75;90.74;100551.25;5038211;28;45362;-62
2023/01/11 01:48:00;;;;;;;;;0.00;0.00;;;;;11.73;90.98;100547.88;5056589;28;45444;-63
2023/01/11 01:50:42;;;;;;;;;0.00;0.00;;;;;11.72;90.74;100553.59;5014255;28;45524;-61
2023/01/11 01:53:41;;;;;;;;;0.40;0.00;;;;;11.74;91.03;100549.56;5039905;28;45406;-61
2023/01/11 01:56:13;;;;;;;;;0.00;0.00;;;;;11.74;91.19;100551.50;4978305;28;45539;-62
2023/01/11 01:58:42;;;;;;;;;0.00;0.00;;;;;11.75;91.09;100554.00;5038069;28;45389;-62
2023/01/11 02:03:51;;;;;;;;;0.00;0.00;;;;;11.75;90.90;100547.69;5056284;28;45405;-61
2023/01/11 02:06:18;;;;;;;;;0.00;0.00;;;;;11.76;90.87;100541.97;5038029;28;45424;-62
2023/01/11 02:08:45;;;;;;;;;0.00;0.00;;;;;11.79;91.21;100551.63;5037786;28;46230;-61
2023/01/11 02:11:28;;;;;;;;;0.00;0.00;;;;;11.81;90.87;100549.53;5004700;28;45558;-61
2023/01/11 02:13:55;;;;;;;;;0.00;0.00;;;;;11.81;90.75;100560.53;5040655;28;45328;-63
2023/01/11 02:16:20;;;;;;;;;0.00;0.00;;;;;11.82;90.67;100555.84;5038080;28;45734;-62
2023/01/11 02:18:46;;;;;;;;;0.00;0.00;;;;;11.82;90.61;100562.22;5037367;28;47185;-62
2023/01/11 02:21:21;;;;;;;;;1.50;0.00;;;;;11.87;90.40;100556.03;5055322;28;45421;-62
2023/01/11 02:24:06;;;;;;;;;0.00;0.00;;;;;11.86;90.33;100560.69;5037987;28;45386;-61
2023/01/11 02:26:43;;;;;;;;;0.00;0.00;;;;;11.84;90.18;100551.81;5037961;28;45270;-61
2023/01/11 02:29:09;;;;;;;;;0.20;0.00;;;;;11.91;90.12;100551.78;5037769;28;45688;-61
2023/01/11 02:31:34;;;;;;;;;0.00;0.00;;;;;11.87;89.94;100540.38;5071418;28;45462;-61
2023/01/11 02:34:03;;;;;;;;;0.00;0.00;;;;;11.79;90.02;100527.75;5055733;28;45521;-62
2023/01/11 02:36:43;;;;;;;;;0.00;0.00;;;;;11.96;89.77;100546.44;5055782;28;45350;-61
2023/01/11 02:39:14;;;;;;;;;0.00;0.00;;;;;11.99;89.16;100548.72;5055579;28;45954;-61
2023/01/11 02:47:28;;;;;;;;;0.00;0.00;;;;;11.99;89.79;100545.97;5040058;28;45613;-60
2023/01/11 02:50:05;;;;;;;;;0.00;0.00;;;;;11.95;89.35;100521.91;5070269;28;46203;-61
2023/01/11 02:52:54;;;;;;;;;0.00;0.00;;;;;12.04;89.40;100546.16;5070531;28;45637;-61
2023/01/11 02:55:22;;;;;;;;;0.00;0.00;;;;;12.05;89.02;100531.34;5053065;28;45364;-61
2023/01/11 02:57:48;;;;;;;;;0.00;0.00;;;;;12.09;89.00;100539.13;5037002;28;45377;-61
2023/01/11 03:00:14;;;;;;;;;0.00;0.00;;;;;12.10;89.24;100535.34;5055174;28;45731;-61
2023/01/11 03:02:40;;;;;;;;;0.00;0.00;;;;;11.95;88.89;100505.41;5053381;28;45370;-61
2023/01/11 03:05:12;;;;;;;;;0.00;0.00;;;;;12.10;89.17;100538.09;5028311;28;45479;-62
2023/01/11 03:07:44;;;;;;;;;0.00;0.00;;;;;12.10;88.78;100530.66;5070571;28;45572;-61
2023/01/11 03:10:34;;;;;;;;;0.00;0.00;;;;;12.10;88.74;100532.59;5054962;28;45677;-60
2023/01/11 03:13:07;;;;;;;;;0.00;0.00;;;;;12.08;88.62;100530.06;5054946;28;45459;-61
2023/01/11 03:15:36;;;;;;;;;0.00;0.00;;;;;12.10;88.53;100521.59;5053378;28;45384;-61
2023/01/11 03:18:07;;;;;;;;;0.00;0.00;;;;;12.15;88.47;100532.72;5053702;28;45642;-61
2023/01/11 03:20:38;;;;;;;;;0.00;0.00;;;;;12.15;88.47;100517.06;5054685;28;45877;-61
2023/01/11 03:23:06;;;;;;;;;0.00;0.00;;;;;12.16;88.56;100529.75;5036857;28;45858;-61
2023/01/11 03:25:50;;;;;;;;;0.00;0.00;;;;;12.17;88.55;100530.59;5054479;28;45393;-61
2023/01/11 03:28:23;;;;;;;;;0.00;0.00;;;;;12.19;88.09;100522.94;5053676;28;45428;-61
2023/01/11 03:31:06;;;;;;;;;0.00;0.00;;;;;12.20;88.35;100530.97;5069575;28;46552;-61
2023/01/11 03:33:50;;;;;;;;;0.00;0.00;;;;;12.20;88.69;100530.13;5053101;28;45383;-61
2023/01/11 03:36:33;;;;;;;;;0.00;0.00;;;;;12.03;89.27;100508.72;5069320;28;45788;-61
2023/01/11 03:39:32;;;;;;;;;0.00;0.00;;;;;12.18;89.28;100538.59;5053357;28;45334;-61
2023/01/11 03:41:59;;;;;;;;;0.00;0.00;;;;;12.18;89.64;100554.28;5051661;28;46408;-62
2023/01/11 03:44:26;;;;;;;;;0.00;0.00;;;;;12.14;89.75;100539.28;5036073;28;45761;-62
2023/01/11 03:46:57;;;;;;;;;0.00;0.00;;;;;12.16;89.90;100551.75;5053227;28;45402;-62
2023/01/11 03:49:42;;;;;;;;;0.20;0.20;;;;;12.15;90.21;100555.59;5069953;28;45358;-62
2023/01/11 03:52:08;;;;;;;;;0.00;0.00;;;;;11.99;90.61;100523.97;5069148;28;45486;-61
2023/01/11 03:54:34;;;;;;;;;0.00;0.00;;;;;12.12;90.64;100545.00;5052979;28;45384;-63
2023/01/11 03:57:28;;;;;;;;;0.00;0.00;;;;;12.14;90.70;100544.78;5036450;28;45437;-63
2023/01/11 03:59:54;;;;;;;;;0.00;0.00;;;;;12.15;90.44;100544.56;5051114;28;45344;-63
2023/01/11 04:02:34;;;;;;;;;0.00;0.00;;;;;12.15;90.37;100540.97;5069926;28;45407;-63
2023/01/11 04:04:59;;;;;;;;;0.00;0.00;;;;;12.02;89.95;100525.44;5054092;28;45318;-63
2023/01/11 04:07:25;;;;;;;;;0.00;0.00;;;;;12.13;90.45;100543.13;5054282;28;45365;-63
2023/01/11 04:09:50;;;;;;;;;0.00;0.00;;;;;11.65;90.32;100472.03;5052687;28;45366;-62
2023/01/11 04:12:16;;;;;;;;;0.00;0.00;;;;;12.11;90.47;100548.84;5054452;28;46074;-62
2023/01/11 04:14:41;;;;;;;;;0.00;0.00;;;;;12.12;90.10;100555.19;5054005;28;45398;-62
2023/01/11 04:17:07;;;;;;;;;0.00;0.00;;;;;12.13;90.43;100554.13;5054304;28;45219;-61
2023/01/11 04:19:32;;;;;;;;;0.00;0.00;;;;;12.15;90.07;100555.59;5054400;28;45386;-62
2023/01/11 04:21:58;;;;;;;;;0.00;0.00;;;;;12.15;90.29;100561.09;5053853;28;46046;-62
2023/01/11 04:24:23;;;;;;;;;0.00;0.00;;;;;12.12;90.41;100550.53;5054079;28;45370;-62
2023/01/11 04:26:49;;;;;;;;;0.00;0.00;;;;;12.15;90.43;100551.97;5054321;28;45260;-62
2023/01/11 04:29:14;;;;;;;;;1.00;0.00;;;;;12.17;90.41;100552.63;5053953;28;45280;-62
2023/01/11 04:31:40;;;;;;;;;0.00;0.00;;;;;12.15;90.55;100560.22;5036165;28;47450;-62
2023/01/11 04:34:05;;;;;;;;;3.00;0.00;;;;;12.16;90.50;100559.16;5018965;28;45332;-62
2023/01/11 04:36:32;;;;;;;;;0.00;0.00;;;;;12.07;90.22;100559.47;5036285;28;45505;-62
2023/01/11 04:38:58;;;;;;;;;0.00;0.00;;;;;11.85;90.09;100520.50;5053903;28;45463;-62
2023/01/11 04:44:27;;;;;;;;;0.00;0.00;;;;;12.14;89.78;100586.06;4990984;28;45470;-62
2023/01/11 04:46:53;;;;;;;;;0.00;0.00;;;;;12.16;89.54;100587.53;4993581;28;45435;-62
2023/01/11 04:49:18;;;;;;;;;0.00;0.00;;;;;12.19;89.45;100589.84;5023815;28;45409;-61
2023/01/11 04:51:43;;;;;;;;;0.00;0.00;;;;;12.19;89.28;100594.50;5039279;28;45401;-62
2023/01/11 04:54:10;;;;;;;;;0.00;0.00;;;;;12.15;88.84;100585.00;5057182;28;45314;-62
2023/01/11 04:56:35;;;;;;;;;0.00;0.00;;;;;12.18;88.76;100601.88;5019684;28;45365;-62
2023/01/11 04:59:01;;;;;;;;;0.00;0.00;;;;;11.99;87.85;100569.88;5039634;28;45499;-63
2023/01/11 05:01:26;;;;;;;;;0.00;0.00;;;;;12.19;87.33;100620.09;4932054;28;45696;-64
2023/01/11 05:03:52;;;;;;;;;0.00;0.00;;;;;12.22;87.88;100617.97;5033563;28;45292;-62
2023/01/11 05:06:24;;;;;;;;;0.00;0.00;;;;;12.20;86.81;100630.03;5036715;28;45299;-62
2023/01/11 05:08:50;;;;;;;;;0.00;0.00;;;;;12.18;87.04;100632.16;5037731;28;45778;-63
2023/01/11 05:11:15;;;;;;;;;0.00;0.00;;;;;12.17;85.95;100635.16;5018648;28;46732;-63
2023/01/11 05:13:41;;;;;;;;;0.00;0.00;;;;;12.17;85.38;100643.41;5036969;28;45640;-63
2023/01/11 05:16:20;;;;;;;;;0.00;0.00;;;;;12.13;84.71;100640.25;5037088;28;45241;-61
2023/01/11 05:19:06;;;;;;;;;1.00;0.00;;;;;12.12;85.26;100651.47;5052267;28;45287;-63
2023/01/11 05:21:36;;;;;;;;;1.60;0.80;;;;;12.11;85.07;100645.13;5017963;28;46919;-62
2023/01/11 05:24:02;;;;;;;;;0.00;0.00;;;;;12.05;84.54;100648.78;5036920;28;45324;-62
2023/01/11 05:26:29;;;;;;;;;0.00;0.00;;;;;12.07;84.33;100665.91;5052108;28;45388;-62
2023/01/11 05:28:56;;;;;;;;;2.00;0.40;;;;;12.00;84.70;100673.34;5043767;28;45322;-62
2023/01/11 05:31:21;;;;;;;;;0.80;0.80;;;;;11.75;84.04;100647.47;5056560;28;45937;-62
2023/01/11 05:33:47;;;;;;;;;2.00;0.25;;;;;11.88;84.38;100681.47;5057067;28;45789;-62
2023/01/11 05:36:14;;;;;;;;;4.00;0.50;;;;;11.84;84.34;100693.97;5056910;28;45248;-62
2023/01/11 05:38:39;;;;;;;;;0.00;0.00;;;;;11.78;83.51;100690.19;5056857;28;45369;-62
2023/01/11 05:41:07;;;;;;;;;2.00;2.00;;;;;11.74;83.63;100705.47;5056754;28;45557;-62
2023/01/11 05:43:32;;;;;;;;;0.00;0.00;;;;;11.73;83.92;100709.25;5038590;28;45330;-61
2023/01/11 05:45:58;;;;;;;;;2.25;1.00;;;;;11.53;83.74;100691.00;5056251;28;45316;-61
2023/01/11 05:48:24;;;;;;;;;0.00;0.00;;;;;11.53;84.17;100688.25;5055251;28;45527;-62
2023/01/11 05:50:52;;;;;;;;;2.00;0.00;;;;;11.51;83.59;100690.34;5056137;28;46590;-62
2023/01/11 05:53:18;;;;;;;;;0.40;0.40;;;;;11.69;83.86;100717.09;5056594;28;45457;-61
2023/01/11 05:55:57;;;;;;;;;0.25;0.25;;;;;11.65;83.62;100716.69;5055901;28;45329;-62
2023/01/11 05:58:23;;;;;;;;;0.00;0.00;;;;;11.64;83.31;100712.28;5037706;28;45679;-61
2023/01/11 06:00:50;;;;;;;;;1.20;1.20;;;;;11.62;83.55;100713.53;5049298;28;46167;-61
2023/01/11 06:03:15;;;;;;;;;1.60;0.60;;;;;11.55;83.62;100713.59;5071315;28;45432;-63
2023/01/11 06:05:41;;;;;;;;;2.25;1.00;;;;;11.53;83.59;100723.97;5070325;28;45196;-62
2023/01/11 06:08:06;;;;;;;;;0.00;0.00;;;;;11.55;83.64;100731.97;5055110;28;45334;-61
2023/01/11 06:10:32;;;;;;;;;3.00;1.00;;;;;11.52;83.33;100739.63;5071272;28;46343;-62
2023/01/11 06:15:41;;;;;;;;;1.80;1.00;;;;;11.50;83.73;100741.75;5055584;28;45487;-62
2023/01/11 06:18:07;;;;;;;;;3.00;1.50;;;;;11.51;83.41;100746.19;5054981;28;45548;-62
2023/01/11 06:20:33;;;;;;;;;4.00;1.00;;;;;11.46;83.11;100745.97;5037486;28;47201;-62
2023/01/11 06:22:58;;;;;;;;;2.00;1.00;;;;;11.50;82.92;100762.88;5055778;28;45251;-62
2023/01/11 06:25:24;;;;;;;;;2.50;1.00;;;;;11.45;83.43;100754.44;5055755;28;45288;-62
2023/01/11 06:27:49;;;;;;;;;1.00;1.00;;;;;11.48;82.69;100757.59;5056180;28;45502;-59
2023/01/11 06:30:15;;;;;;;;;1.75;1.00;;;;;11.50;82.49;100765.63;5055399;28;46067;-59
2023/01/11 06:32:40;;;;;;;;;4.00;2.00;;;;;11.50;83.10;100771.97;5055792;28;45389;-61
2023/01/11 06:35:06;;;;;;;;;3.00;1.00;;;;;11.51;82.48;100775.56;5037638;28;45544;-61
2023/01/11 06:37:32;;;;;;;;;5.25;1.25;;;;;11.51;82.82;100772.81;5056334;28;45706;-62
2023/01/11 06:39:57;;;;;;;;;7.00;2.00;;;;;10.89;82.60;100682.56;5055380;28;45440;-61
2023/01/11 06:42:23;;;;;;;;;0.75;0.75;;;;;11.43;83.08;100784.91;5020969;28;45343;-62
2023/01/11 06:44:48;;;;;;;;;3.25;2.00;;;;;11.49;82.69;100795.00;5016857;28;45428;-61
2023/01/11 06:47:14;;;;;;;;;1.00;1.00;;;;;11.43;81.92;100806.88;5035926;28;45319;-62
2023/01/11 06:49:39;;;;;;;;;2.75;2.75;;;;;11.39;82.61;100800.13;5034124;28;45474;-63
2023/01/11 06:52:04;;;;;;;;;3.00;0.75;;;;;11.38;83.30;100801.19;5035060;28;45376;-60
2023/01/11 06:54:30;;;;;;;;;0.75;0.75;;;;;11.40;83.46;100807.31;5035619;28;45441;-63
2023/01/11 06:56:55;;;;;;;;;2.50;0.00;;;;;11.37;82.63;100811.31;5033689;28;45504;-61
2023/01/11 06:59:21;;;;;;;;;1.00;1.00;;;;;11.32;82.82;100819.38;5033834;28;46068;-62
2023/01/11 07:01:46;;;;;;;;;0.25;0.25;;;;;10.97;82.79;100775.72;5034070;28;45400;-62
2023/01/11 07:04:12;;;;;;;;;2.00;0.25;;;;;11.26;82.59;100814.72;5035031;28;45334;-60
2023/01/11 07:06:37;;;;;;;;;3.50;2.00;;;;;11.24;82.81;100811.38;5003299;28;45738;-61
2023/01/11 07:09:03;;;;;;;;;4.00;0.75;;;;;11.31;83.25;100822.34;5031948;28;46524;-62
2023/01/11 07:11:31;;;;;;;;;1.50;0.25;;;;;11.18;82.77;100801.22;5034871;28;45833;-62
2023/01/11 07:13:56;;;;;;;;;0.00;0.00;;;;;11.24;83.37;100825.09;5033874;28;45443;-62
2023/01/11 07:16:22;;;;;;;;;3.25;2.25;;;;;11.30;83.77;100831.66;5034988;28;45288;-62
2023/01/11 07:18:47;;;;;;;;;3.25;1.00;;;;;11.26;83.22;100820.22;5035112;28;46137;-61
2023/01/11 07:21:13;;;;;;;;;3.25;1.00;;;;;10.76;83.16;100744.69;5034585;28;45397;-62
2023/01/11 07:23:38;;;;;;;;;3.50;3.00;;;;;11.09;82.90;100806.09;5033740;28;45375;-62
2023/01/11 07:26:04;;;;;;;;;0.00;0.00;;;;;11.21;82.58;100831.03;5034864;28;45147;-63
2023/01/11 07:28:30;;;;;;;;;3.75;1.00;;;;;11.18;82.56;100821.31;5034960;28;45300;-62
2023/01/11 07:30:55;;;;;;;;;1.50;1.50;;;;;11.22;82.31;100833.53;5033282;28;45397;-62
2023/01/11 07:33:21;;;;;;;;;1.00;0.75;;;;;11.20;82.38;100838.41;5034657;28;45319;-62
2023/01/11 07:35:48;;;;;;;;;2.00;2.00;;;;;11.06;81.98;100829.34;5067264;28;45516;-62
2023/01/11 07:38:13;;;;;;;;;3.40;1.00;;;;;11.00;81.16;100832.13;5066539;28;45877;-62
2023/01/11 07:40:39;;;;;;;;;2.75;1.00;;;;;11.04;80.85;100856.19;5033395;28;45464;-63
2023/01/11 07:43:13;;;;;;;;;2.00;1.00;;;;;11.07;82.31;100854.91;5034865;28;45392;-62
2023/01/11 07:45:39;;;;;;;;;4.80;2.00;;;;;11.08;81.53;100862.09;5051018;28;45459;-60
2023/01/11 07:48:06;;;;;;;;;2.20;0.00;;;;;11.09;81.74;100874.78;5036803;28;45401;-59
2023/01/11 07:50:32;;;;;;;;;5.80;2.00;;;;;11.03;82.08;100886.59;5070061;28;45337;-61
2023/01/11 07:52:57;;;;;;;;;2.75;0.00;;;;;10.63;82.17;100836.16;5053699;28;45371;-62
2023/01/11 07:55:23;;;;;;;;;3.00;2.00;;;;;11.03;82.07;100906.69;5070142;28;45646;-62
2023/01/11 07:57:48;;;;;;;;;2.00;1.00;;;;;11.02;81.28;100918.72;5036599;28;45402;-62
2023/01/11 08:00:14;;;;;;;;;1.75;1.00;;;;;10.97;81.62;100922.13;5036622;28;45256;-62
2023/01/11 08:02:40;;;;;;;;;2.20;1.00;;;;;10.99;80.89;100924.63;5054703;28;45250;-62
2023/01/11 08:05:06;;;;;;;;;0.25;0.25;;;;;11.03;80.96;100927.81;5055322;28;45334;-62
2023/01/11 08:07:31;;;;;;;;;1.50;0.50;;;;;11.00;80.00;100934.59;5069850;28;46044;-62
2023/01/11 08:09:57;;;;;;;;;3.00;1.25;;;;;10.94;80.91;100933.50;5054772;28;45350;-61
2023/01/11 08:15:09;;;;;;;;;1.40;1.40;;;;;11.00;80.82;100941.97;5054682;28;45357;-63
2023/01/11 08:17:34;;;;;;;;;1.00;1.00;;;;;11.01;81.31;100952.75;5069041;28;47411;-61
2023/01/11 08:20:00;;;;;;;;;3.00;1.00;;;;;11.05;81.29;100955.94;5036154;28;45255;-60
2023/01/11 08:22:25;;;;;;;;;4.25;1.75;;;;;11.05;81.15;100958.66;5057914;28;45804;-61
2023/01/11 08:24:51;;;;;;;;;2.50;0.75;;;;;11.08;80.78;100966.47;5058276;28;45367;-61
2023/01/11 08:27:16;;;;;;;;;1.50;0.25;;;;;11.07;80.74;100965.66;5073437;28;47192;-61
2023/01/11 08:29:43;;;;;;;;;2.25;1.00;;;;;11.03;79.97;100966.25;5057558;28;45323;-61
2023/01/11 08:32:09;;;;;;;;;1.40;1.40;;;;;11.00;78.68;100975.78;5038693;28;45746;-63
2023/01/11 08:34:35;;;;;;;;;4.80;1.80;;;;;11.02;79.64;100981.91;5055075;28;45315;-63
2023/01/11 08:37:01;;;;;;;;;0.50;0.00;;;;;11.06;79.83;100983.16;5057746;28;46373;-60
2023/01/11 08:39:29;;;;;;;;;4.00;2.00;;;;;11.07;79.96;100992.25;5039613;28;45360;-62
2023/01/11 08:41:58;;;;;;;;;2.00;1.40;;;;;11.09;79.88;100987.38;5023624;28;45427;-62
2023/01/11 08:44:23;;;;;;;;;6.00;2.80;;;;;11.08;78.76;101003.03;5035886;28;45361;-61
2023/01/11 08:46:49;;;;;;;;;2.50;1.00;;;;;10.65;79.56;100937.47;5035692;28;45273;-62
2023/01/11 08:49:14;;;;;;;;;3.50;1.00;;;;;10.77;79.04;100952.28;5037550;28;45429;-62
2023/01/11 08:51:40;;;;;;;;;0.75;0.75;;;;;10.98;79.34;100989.72;5035817;28;45271;-62
2023/01/11 08:54:08;;;;;;;;;4.25;2.50;;;;;10.95;78.03;101003.84;5037860;28;45488;-61
2023/01/11 08:56:35;;;;;;;;;2.20;1.60;;;;;10.96;78.15;101001.97;5035706;28;45755;-62
2023/01/11 08:59:02;;;;;;;;;2.00;2.00;;;;;11.04;77.85;101006.44;5036979;28;45467;-62
2023/01/11 09:01:27;;;;;;;;;1.20;1.20;;;;;10.86;76.91;100988.63;5036087;28;45399;-62
2023/01/11 09:03:53;;;;;;;;;2.00;2.00;;;;;11.07;77.52;101006.84;5018967;28;45317;-62
2023/01/11 09:06:19;;;;;;;;;4.20;2.20;;;;;11.10;77.26;101013.84;5036804;28;45379;-61
2023/01/11 09:08:46;;;;;;;;;3.00;2.25;;;;;11.15;77.00;101015.94;5037153;28;45367;-61
2023/01/11 09:13:56;;;;;;;;;8.20;3.20;;;;;11.21;76.48;101037.91;5037111;28;45275;-61
2023/01/11 09:16:21;;;;;;;;;2.00;1.00;;;;;11.12;75.33;101033.69;5036833;28;46043;-64
2023/01/11 09:18:47;;;;;;;;;4.00;1.00;;;;;10.91;75.71;101009.97;5035634;28;45539;-63
2023/01/11 09:21:12;;;;;;;;;2.50;2.00;;;;;11.00;75.19;101038.97;5035707;28;45842;-64
2023/01/11 09:23:38;;;;;;;;;7.00;2.25;;;;;11.02;75.19;101055.22;5018931;28;45619;-65
2023/01/11 09:26:04;;;;;;;;;1.50;1.25;;;;;10.96;75.52;101056.88;5036589;28;46408;-63
2023/01/11 09:28:29;;;;;;;;;1.50;0.50;;;;;10.90;75.04;101053.09;5035333;28;45392;-63
2023/01/11 09:30:55;;;;;;;;;1.00;0.50;;;;;10.96;75.11;101060.50;5035336;28;45406;-61
2023/01/11 09:33:20;;;;;;;;;2.50;1.00;;;;;10.83;74.18;101047.56;5035856;28;45400;-62
2023/01/11 09:35:46;;;;;;;;;4.00;3.00;;;;;10.88;75.24;101068.91;5014764;28;45477;-62
2023/01/11 09:38:11;;;;;;;;;3.25;1.50;;;;;10.90;74.23;101069.56;5034383;28;45405;-61
2023/01/11 09:40:49;;;;;;;;;1.00;1.00;;;;;10.84;74.31;101071.22;5033009;28;45445;-62
2023/01/11 09:43:15;;;;;;;;;6.60;2.60;;;;;10.85;73.72;101081.13;5035644;28;45595;-62
2023/01/11 09:45:45;;;;;;;;;2.00;0.50;;;;;10.79;72.98;101079.22;5048720;28;45820;-61
2023/01/11 09:48:27;;;;;;;;;3.00;3.00;;;;;10.86;72.68;101082.00;5035876;28;45520;-61
2023/01/11 09:50:53;;;;;;;;;2.00;0.80;;;;;10.94;72.98;101089.22;5048618;28;45594;-59
2023/01/11 09:53:29;;;;;;;;;3.75;1.00;;;;;10.98;73.87;101105.06;5033992;28;46681;-60
2023/01/11 09:55:58;;;;;;;;;3.40;2.20;;;;;11.02;72.84;101111.00;5018414;28;46228;-61
2023/01/11 09:58:40;;;;;;;;;1.80;1.40;;;;;11.01;73.14;101108.44;5000921;28;45790;-61
2023/01/11 10:01:20;;;;;;;;;1.80;1.80;;;;;10.99;72.21;101116.88;5034759;28;45409;-60
2023/01/11 10:04:16;;;;;;;;;2.00;1.80;;;;;10.95;70.78;101110.13;5033897;28;45426;-61
2023/01/11 10:07:01;;;;;;;;;7.60;1.60;;;;;10.89;71.24;101117.28;5033465;28;46813;-62
2023/01/11 10:09:33;;;;;;;;;1.60;1.60;;;;;10.90;72.42;101132.72;5032476;28;45634;-60
2023/01/11 10:12:04;;;;;;;;;2.60;0.00;;;;;10.91;71.06;101139.91;5034509;28;45275;-62
2023/01/11 10:15:08;;;;;;;;;1.60;1.60;;;;;10.93;70.60;101125.94;5034647;28;45325;-62
2023/01/11 10:17:58;;;;;;;;;5.00;2.00;;;;;11.00;70.77;101131.47;5033744;28;46252;-62
2023/01/11 10:20:34;;;;;;;;;0.40;0.40;;;;;10.97;70.29;101125.34;5032729;28;45470;-63
2023/01/11 10:23:27;;;;;;;;;4.20;1.00;;;;;11.02;71.08;101127.47;5031187;28;45380;-64
2023/01/11 10:26:00;;;;;;;;;2.20;2.20;;;;;11.07;71.31;101121.38;5032215;28;45685;-63
2023/01/11 10:28:59;;;;;;;;;6.20;1.00;;;;;11.03;70.28;101120.94;5033871;28;45455;-62
2023/01/11 10:31:43;;;;;;;;;1.80;0.80;;;;;10.96;70.44;101118.19;5034262;28;45318;-62
2023/01/11 10:42:36;;;;;;;;;2.60;2.60;;;;;11.12;71.22;101140.81;5034822;28;45373;-63
2023/01/11 10:45:03;;;;;;;;;1.00;1.00;;;;;11.09;71.35;101138.47;5018277;28;46523;-64
2023/01/11 10:47:42;;;;;;;;;1.00;1.00;;;;;10.85;71.40;101099.53;5034238;28;45903;-64
2023/01/11 10:50:27;;;;;;;;;1.00;1.00;;;;;11.08;71.60;101128.53;5018693;28;45779;-63
2023/01/11 10:53:05;;;;;;;;;4.40;2.20;;;;;10.89;71.39;101097.22;5034093;28;45382;-63
2023/01/11 10:55:46;;;;;;;;;3.80;2.00;;;;;11.11;70.55;101137.22;5034300;28;45285;-64
2023/01/11 10:58:23;;;;;;;;;6.00;2.20;;;;;11.13;71.63;101139.78;5035684;28;45469;-65
2023/01/11 11:01:31;;;;;;;;;4.80;2.00;;;;;11.20;71.19;101146.13;5018408;28;45584;-64
2023/01/11 11:04:12;;;;;;;;;3.60;3.60;;;;;11.29;71.54;101162.44;5001183;28;45306;-62
2023/01/11 11:06:50;;;;;;;;;5.00;2.40;;;;;11.36;71.05;101171.53;5032745;28;45251;-63
2023/01/11 11:09:34;;;;;;;;;2.20;1.20;;;;;11.41;71.47;101165.44;5034301;28;45339;-64
2023/01/11 11:12:08;;;;;;;;;8.40;3.80;;;;;11.44;70.12;101171.38;5035115;28;46494;-63
2023/01/11 11:14:50;;;;;;;;;3.80;1.00;;;;;11.45;70.62;101173.06;5033859;28;45320;-64
2023/01/11 11:17:23;;;;;;;;;3.00;2.00;;;;;11.52;70.36;101170.31;5035322;28;45382;-66
2023/01/11 11:19:48;;;;;;;;;1.20;1.20;;;;;11.56;70.06;101159.75;5034131;28;45516;-65
2023/01/11 11:22:14;;;;;;;;;3.00;2.00;;;;;11.62;68.78;101153.41;5033457;28;45792;-63
2023/01/11 11:24:49;;;;;;;;;1.00;1.00;;;;;11.64;68.96;101165.06;5034973;28;45491;-62
2023/01/11 11:27:42;;;;;;;;;1.40;1.40;;;;;11.67;67.63;101156.38;5017818;28;45437;-61
2023/01/11 11:30:11;;;;;;;;;6.40;1.00;;;;;11.75;68.37;101172.69;5052225;28;45485;-62
2023/01/11 11:32:38;;;;;;;;;4.00;2.00;;;;;11.86;67.62;101154.72;5055753;28;45959;-63
2023/01/11 11:35:06;;;;;;;;;3.60;1.80;;;;;12.27;67.57;101166.59;5070488;28;45485;-68
2023/01/11 11:37:39;;;;;;;;;2.60;1.20;;;;;13.22;63.93;101144.28;5032774;28;45700;-67
2023/01/11 11:40:29;;;;;;;;;2.00;1.20;;;;;14.12;60.10;101170.03;5006223;28;45473;-66
2023/01/11 11:43:16;;;;;;;;;1.00;1.00;;;;;14.52;59.90;101154.16;5011212;28;46675;-66
2023/01/11 11:45:51;;;;;;;;;4.00;3.00;;;;;14.15;60.03;101185.28;5012335;28;45566;-65
2023/01/11 11:48:17;;;;;;;;;2.20;1.60;;;;;14.80;56.93;101177.69;5013344;28;45521;-66
2023/01/11 11:50:43;;;;;;;;;3.80;3.80;;;;;14.29;57.28;101186.88;5015259;28;45487;-64
2023/01/11 11:53:15;;;;;;;;;1.00;1.00;;;;;13.93;59.51;101174.66;5012796;28;45450;-62
2023/01/11 11:55:41;;;;;;;;;1.60;1.00;;;;;13.64;60.09;101177.81;5012907;28;45441;-65
2023/01/11 11:58:07;;;;;;;;;1.25;1.25;;;;;13.40;61.03;101174.72;4996525;28;45488;-65
2023/01/11 12:00:38;;;;;;;;;6.40;2.00;;;;;13.44;61.30;101190.84;4997105;28;45490;-63
2023/01/11 12:03:17;;;;;;;;;1.60;1.40;;;;;13.32;61.96;101188.78;5012688;28;46927;-63
2023/01/11 12:06:00;;;;;;;;;3.00;2.00;;;;;13.06;61.98;101156.66;5006347;28;46065;-63
2023/01/11 12:08:25;;;;;;;;;3.00;1.60;;;;;13.22;62.79;101196.66;5028188;28;45497;-64
2023/01/11 12:10:57;;;;;;;;;3.50;2.50;;;;;13.24;61.72;101198.13;5030728;28;45553;-63
2023/01/11 12:13:38;;;;;;;;;4.60;2.40;;;;;13.16;62.00;101192.88;5028455;28;45786;-65